Time;durP1;ratioP1;P1;durP2;ratioP2;P2;SDS_P1;SDS_P2;PMS_P1;PMS_P2;Temp;Humidity;BMP_temperature;BMP_pressure;BME280_temperature;BME280_humidity;BME280_pressure;Samples;Min_cycle;Max_cycle;Signal;HPM_P1;HPM_P2
2023/04/21 00:01:17;;;;;;;;;;;;;;;;;;5043921;28;19920;-55
2023/04/21 00:03:43;;;;;;;;;;;;;;;;;;5066495;28;19939;-54
2023/04/21 00:06:08;;;;;;;;;;;;;;;;;;5064558;28;20074;-59
2023/04/21 00:08:39;;;;;;;;;;;;;;;;;;5060861;28;20514;-54
2023/04/21 00:11:05;;;;;;;;;;;;;;;;;;5065621;28;19921;-52
2023/04/21 00:13:30;;;;;;;;;;;;;;;;;;5059930;28;20349;-55
2023/04/21 00:15:56;;;;;;;;;;;;;;;;;;5051554;28;21343;-55
2023/04/21 00:18:22;;;;;;;;;;;;;;;;;;5038429;28;20556;-55
2023/04/21 00:20:48;;;;;;;;;;;;;;;;;;5035340;28;19919;-55
2023/04/21 00:23:14;;;;;;;;;;;;;;;;;;5041767;28;19916;-53
2023/04/21 00:25:40;;;;;;;;;;;;;;;;;;5037458;28;20044;-54
2023/04/21 00:28:06;;;;;;;;;;;;;;;;;;5046840;28;20007;-55
2023/04/21 00:30:32;;;;;;;;;;;;;;;;;;5053315;28;19927;-54
2023/04/21 00:32:58;;;;;;;;;;;;;;;;;;5046828;28;20378;-53
2023/04/21 00:35:24;;;;;;;;;;;;;;;;;;5047661;28;19912;-55
2023/04/21 00:37:50;;;;;;;;;;;;;;;;;;5029527;28;20658;-60
2023/04/21 00:40:16;;;;;;;;;;;;;;;;;;5048151;28;19919;-57
2023/04/21 00:42:42;;;;;;;;;;;;;;;;;;5041221;28;20531;-54
2023/04/21 00:45:08;;;;;;;;;;;;;;;;;;5038837;28;19911;-55
2023/04/21 00:47:34;;;;;;;;;;;;;;;;;;5039159;28;20618;-54
2023/04/21 00:50:00;;;;;;;;;;;;;;;;;;5041431;28;19923;-53
2023/04/21 00:52:26;;;;;;;;;;;;;;;;;;5046167;28;20332;-54
2023/04/21 00:54:52;;;;;;;;;;;;;;;;;;5057015;28;19916;-54
2023/04/21 00:57:18;;;;;;;;;;;;;;;;;;5050372;28;19916;-53
2023/04/21 00:59:44;;;;;;;;;;;;;;;;;;5049991;28;19985;-54
2023/04/21 01:02:10;;;;;;;;;;;;;;;;;;5048581;28;19924;-55
2023/04/21 01:04:38;;;;;;;;;;;;;;;;;;5045160;28;20009;-53
2023/04/21 01:07:04;;;;;;;;;;;;;;;;;;5049302;28;19982;-53
2023/04/21 01:09:30;;;;;;;;;;;;;;;;;;5054531;28;19915;-56
2023/04/21 01:11:56;;;;;;;;;;;;;;;;;;5050295;28;19920;-52
2023/04/21 01:14:22;;;;;;;;;;;;;;;;;;5050052;28;19989;-52
2023/04/21 01:16:48;;;;;;;;;;;;;;;;;;5045083;28;20467;-52
2023/04/21 01:19:15;;;;;;;;;;;;;;;;;;5051778;28;19912;-55
2023/04/21 01:21:41;;;;;;;;;;;;;;;;;;5050223;28;19911;-53
2023/04/21 01:24:07;;;;;;;;;;;;;;;;;;5055219;28;20057;-54
2023/04/21 01:26:33;;;;;;;;;;;;;;;;;;5050757;28;20442;-55
2023/04/21 01:28:59;;;;;;;;;;;;;;;;;;5052310;28;19973;-52
2023/04/21 01:31:26;;;;;;;;;;;;;;;;;;5049797;28;20256;-53
2023/04/21 01:33:51;;;;;;;;;;;;;;;;;;5058632;28;19916;-54
2023/04/21 01:36:17;;;;;;;;;;;;;;;;;;5044394;28;19943;-53
2023/04/21 01:38:43;;;;;;;;;;;;;;;;;;5059091;28;19908;-52
2023/04/21 01:41:09;;;;;;;;;;;;;;;;;;5060410;28;20092;-56
2023/04/21 01:43:36;;;;;;;;;;;;;;;;;;5054516;28;19915;-54
2023/04/21 01:46:01;;;;;;;;;;;;;;;;;;5053955;28;20316;-53
2023/04/21 01:48:27;;;;;;;;;;;;;;;;;;5063880;28;19915;-53
2023/04/21 01:50:53;;;;;;;;;;;;;;;;;;5064785;28;19916;-53
2023/04/21 01:53:19;;;;;;;;;;;;;;;;;;5062960;28;20015;-53
2023/04/21 01:55:45;;;;;;;;;;;;;;;;;;5066554;28;19970;-52
2023/04/21 01:58:11;;;;;;;;;;;;;;;;;;5057335;28;19912;-53
2023/04/21 02:00:37;;;;;;;;;;;;;;;;;;5063487;28;19924;-54
2023/04/21 02:03:02;;;;;;;;;;;;;;;;;;5067583;28;20468;-54
2023/04/21 02:05:28;;;;;;;;;;;;;;;;;;5060613;28;19934;-53
2023/04/21 02:07:54;;;;;;;;;;;;;;;;;;5062761;28;19954;-53
2023/04/21 02:10:20;;;;;;;;;;;;;;;;;;5063916;28;19923;-54
2023/04/21 02:12:46;;;;;;;;;;;;;;;;;;5056236;28;19938;-54
2023/04/21 02:15:12;;;;;;;;;;;;;;;;;;5061686;28;19916;-53
2023/04/21 02:17:38;;;;;;;;;;;;;;;;;;5058535;28;20450;-55
2023/04/21 02:20:04;;;;;;;;;;;;;;;;;;5055601;28;19919;-56
2023/04/21 02:22:31;;;;;;;;;;;;;;;;;;5048770;28;20764;-54
2023/04/21 02:24:57;;;;;;;;;;;;;;;;;;5050859;28;20284;-54
2023/04/21 02:27:23;;;;;;;;;;;;;;;;;;5051096;28;19949;-54
2023/04/21 02:29:48;;;;;;;;;;;;;;;;;;5060781;28;19919;-54
2023/04/21 02:32:14;;;;;;;;;;;;;;;;;;5064671;28;20358;-53
2023/04/21 02:34:41;;;;;;;;;;;;;;;;;;5060932;28;19959;-52
2023/04/21 02:37:07;;;;;;;;;;;;;;;;;;5058910;28;25556;-53
2023/04/21 02:39:33;;;;;;;;;;;;;;;;;;5061171;28;20336;-53
2023/04/21 02:41:59;;;;;;;;;;;;;;;;;;5058166;28;19947;-57
2023/04/21 02:44:25;;;;;;;;;;;;;;;;;;5059420;28;19916;-52
2023/04/21 02:46:51;;;;;;;;;;;;;;;;;;5053311;28;20339;-54
2023/04/21 02:49:17;;;;;;;;;;;;;;;;;;5061709;28;21254;-53
2023/04/21 02:51:42;;;;;;;;;;;;;;;;;;5059723;28;19920;-52
2023/04/21 02:54:08;;;;;;;;;;;;;;;;;;5061923;28;19964;-53
2023/04/21 02:56:34;;;;;;;;;;;;;;;;;;5049224;28;19912;-53
2023/04/21 02:59:00;;;;;;;;;;;;;;;;;;5054192;28;19923;-53
2023/04/21 03:01:26;;;;;;;;;;;;;;;;;;5048465;28;21128;-55
2023/04/21 03:03:52;;;;;;;;;;;;;;;;;;5053449;28;20366;-54
2023/04/21 03:06:18;;;;;;;;;;;;;;;;;;5052001;28;19911;-54
2023/04/21 03:08:44;;;;;;;;;;;;;;;;;;5056173;28;20069;-57
2023/04/21 03:11:10;;;;;;;;;;;;;;;;;;5057436;28;19942;-55
2023/04/21 03:13:36;;;;;;;;;;;;;;;;;;5055069;28;19935;-53
2023/04/21 03:16:02;;;;;;;;;;;;;;;;;;5054751;28;20334;-53
2023/04/21 03:18:28;;;;;;;;;;;;;;;;;;5053528;28;20479;-58
2023/04/21 03:20:54;;;;;;;;;;;;;;;;;;5055368;28;20014;-53
2023/04/21 03:23:19;;;;;;;;;;;;;;;;;;5054118;28;19916;-58
2023/04/21 03:25:45;;;;;;;;;;;;;;;;;;5054962;28;20562;-52
2023/04/21 03:28:12;;;;;;;;;;;;;;;;;;5051713;28;19954;-54
2023/04/21 03:30:38;;;;;;;;;;;;;;;;;;5059258;28;20054;-52
2023/04/21 03:33:05;;;;;;;;;;;;;;;;;;5056222;28;19966;-53
2023/04/21 03:35:31;;;;;;;;;;;;;;;;;;5053200;28;20303;-54
2023/04/21 03:37:56;;;;;;;;;;;;;;;;;;5053487;28;20554;-52
2023/04/21 03:40:22;;;;;;;;;;;;;;;;;;5061797;28;20080;-53
2023/04/21 03:42:48;;;;;;;;;;;;;;;;;;5058578;28;20504;-53
2023/04/21 03:45:14;;;;;;;;;;;;;;;;;;5053641;28;20570;-55
2023/04/21 03:47:40;;;;;;;;;;;;;;;;;;5060289;28;19916;-53
2023/04/21 03:50:06;;;;;;;;;;;;;;;;;;5060002;28;19987;-56
2023/04/21 03:52:32;;;;;;;;;;;;;;;;;;5061799;28;19924;-52
2023/04/21 03:54:58;;;;;;;;;;;;;;;;;;5057461;28;20554;-53
2023/04/21 03:57:24;;;;;;;;;;;;;;;;;;5057775;28;20058;-54
2023/04/21 03:59:50;;;;;;;;;;;;;;;;;;5054807;28;19920;-52
2023/04/21 04:02:15;;;;;;;;;;;;;;;;;;5054111;28;19919;-53
2023/04/21 04:04:41;;;;;;;;;;;;;;;;;;5060405;28;19928;-55
2023/04/21 04:07:08;;;;;;;;;;;;;;;;;;5057557;28;19965;-53
2023/04/21 04:09:34;;;;;;;;;;;;;;;;;;5063984;28;20678;-52
2023/04/21 04:12:02;;;;;;;;;;;;;;;;;;5057240;28;20377;-53
2023/04/21 04:14:28;;;;;;;;;;;;;;;;;;5058092;28;19911;-54
2023/04/21 04:16:54;;;;;;;;;;;;;;;;;;5054461;28;19915;-53
2023/04/21 04:19:19;;;;;;;;;;;;;;;;;;5048667;28;19962;-55
2023/04/21 04:21:45;;;;;;;;;;;;;;;;;;5047057;28;20412;-53
2023/04/21 04:24:12;;;;;;;;;;;;;;;;;;5048377;28;19916;-53
2023/04/21 04:26:38;;;;;;;;;;;;;;;;;;5049853;28;19950;-54
2023/04/21 04:29:09;;;;;;;;;;;;;;;;;;5054920;28;19916;-52
2023/04/21 04:31:35;;;;;;;;;;;;;;;;;;5057537;28;20447;-54
2023/04/21 04:34:00;;;;;;;;;;;;;;;;;;5043993;28;19912;-54
2023/04/21 04:36:27;;;;;;;;;;;;;;;;;;5055151;28;20373;-54
2023/04/21 04:38:53;;;;;;;;;;;;;;;;;;5057407;28;19969;-54
2023/04/21 04:41:19;;;;;;;;;;;;;;;;;;5055040;28;20469;-53
2023/04/21 04:43:46;;;;;;;;;;;;;;;;;;5044876;28;20380;-53
2023/04/21 04:46:12;;;;;;;;;;;;;;;;;;5049308;28;20025;-53
2023/04/21 04:48:38;;;;;;;;;;;;;;;;;;5046935;28;19916;-55
2023/04/21 04:51:03;;;;;;;;;;;;;;;;;;5052557;28;19920;-56
2023/04/21 04:53:30;;;;;;;;;;;;;;;;;;5050459;28;19955;-53
2023/04/21 04:55:57;;;;;;;;;;;;;;;;;;5051985;28;19943;-53
2023/04/21 04:58:23;;;;;;;;;;;;;;;;;;5049215;28;19961;-53
2023/04/21 05:00:49;;;;;;;;;;;;;;;;;;5051902;28;20050;-54
2023/04/21 05:03:15;;;;;;;;;;;;;;;;;;5051757;28;22015;-53
2023/04/21 05:05:41;;;;;;;;;;;;;;;;;;5050427;28;19912;-54
2023/04/21 05:08:07;;;;;;;;;;;;;;;;;;5048701;28;19919;-53
2023/04/21 05:10:33;;;;;;;;;;;;;;;;;;5046826;28;20347;-53
2023/04/21 05:12:59;;;;;;;;;;;;;;;;;;5047625;28;20400;-53
2023/04/21 05:15:25;;;;;;;;;;;;;;;;;;5051844;28;20398;-53
2023/04/21 05:17:51;;;;;;;;;;;;;;;;;;5049238;28;19919;-53
2023/04/21 05:20:17;;;;;;;;;;;;;;;;;;5056037;28;20646;-52
2023/04/21 05:22:43;;;;;;;;;;;;;;;;;;5050273;28;20001;-54
2023/04/21 05:25:09;;;;;;;;;;;;;;;;;;5052721;28;19920;-53
2023/04/21 05:27:35;;;;;;;;;;;;;;;;;;5053117;28;20497;-52
2023/04/21 05:30:00;;;;;;;;;;;;;;;;;;5047252;28;20038;-55
2023/04/21 05:32:28;;;;;;;;;;;;;;;;;;5039578;28;19926;-55
2023/04/21 05:34:53;;;;;;;;;;;;;;;;;;5036184;28;20027;-52
2023/04/21 05:37:19;;;;;;;;;;;;;;;;;;5050273;28;19912;-54
2023/04/21 05:39:45;;;;;;;;;;;;;;;;;;5047085;28;20042;-53
2023/04/21 05:42:11;;;;;;;;;;;;;;;;;;5052188;28;19912;-53
2023/04/21 05:44:37;;;;;;;;;;;;;;;;;;5048394;28;19912;-52
2023/04/21 05:47:03;;;;;;;;;;;;;;;;;;5056596;28;20551;-52
2023/04/21 05:49:29;;;;;;;;;;;;;;;;;;5059403;28;19924;-52
2023/04/21 05:51:55;;;;;;;;;;;;;;;;;;5062317;28;19924;-53
2023/04/21 05:54:21;;;;;;;;;;;;;;;;;;5054813;28;19916;-53
2023/04/21 05:56:47;;;;;;;;;;;;;;;;;;5053122;28;19908;-53
2023/04/21 05:59:13;;;;;;;;;;;;;;;;;;5051672;28;19945;-51
2023/04/21 06:01:39;;;;;;;;;;;;;;;;;;5056146;28;19920;-53
2023/04/21 06:04:04;;;;;;;;;;;;;;;;;;5048776;28;20004;-53
2023/04/21 06:06:30;;;;;;;;;;;;;;;;;;5043908;28;19912;-51
2023/04/21 06:08:56;;;;;;;;;;;;;;;;;;5053078;28;19997;-52
2023/04/21 06:11:22;;;;;;;;;;;;;;;;;;5046477;28;19912;-53
2023/04/21 06:13:48;;;;;;;;;;;;;;;;;;5054409;28;19912;-53
2023/04/21 06:16:14;;;;;;;;;;;;;;;;;;5052227;28;19915;-53
2023/04/21 06:18:40;;;;;;;;;;;;;;;;;;5051566;28;19928;-52
2023/04/21 06:21:06;;;;;;;;;;;;;;;;;;5054432;28;19972;-53
2023/04/21 06:23:32;;;;;;;;;;;;;;;;;;5053490;28;19916;-52
2023/04/21 06:25:58;;;;;;;;;;;;;;;;;;5056706;28;20521;-53
2023/04/21 06:28:24;;;;;;;;;;;;;;;;;;5057441;28;19912;-53
2023/04/21 06:30:50;;;;;;;;;;;;;;;;;;5059114;28;19927;-53
2023/04/21 06:33:16;;;;;;;;;;;;;;;;;;5059076;28;19955;-50
2023/04/21 06:35:42;;;;;;;;;;;;;;;;;;5058195;28;19970;-52
2023/04/21 06:38:08;;;;;;;;;;;;;;;;;;5055415;28;19918;-50
2023/04/21 06:40:34;;;;;;;;;;;;;;;;;;5060463;28;24918;-52
2023/04/21 06:43:00;;;;;;;;;;;;;;;;;;5060470;28;20538;-52
2023/04/21 06:45:26;;;;;;;;;;;;;;;;;;5055978;28;19927;-54
2023/04/21 06:47:51;;;;;;;;;;;;;;;;;;5047764;28;20008;-53
2023/04/21 06:50:17;;;;;;;;;;;;;;;;;;5056359;28;20233;-52
2023/04/21 06:52:43;;;;;;;;;;;;;;;;;;5060505;28;19920;-53
2023/04/21 06:55:09;;;;;;;;;;;;;;;;;;5071183;28;20290;-53
2023/04/21 06:57:35;;;;;;;;;;;;;;;;;;5079477;28;20760;-53
2023/04/21 07:00:01;;;;;;;;;;;;;;;;;;5074869;28;19923;-52
2023/04/21 07:02:27;;;;;;;;;;;;;;;;;;5072411;28;19916;-53
2023/04/21 07:04:53;;;;;;;;;;;;;;;;;;5075608;28;19915;-53
2023/04/21 07:07:18;;;;;;;;;;;;;;;;;;5074678;28;20006;-52
2023/04/21 07:09:47;;;;;;;;;;;;;;;;;;5075119;28;20432;-52
2023/04/21 07:12:12;;;;;;;;;;;;;;;;;;5074609;28;20451;-53
2023/04/21 07:14:38;;;;;;;;;;;;;;;;;;5078663;28;19908;-53
2023/04/21 07:17:04;;;;;;;;;;;;;;;;;;5078984;28;19919;-52
2023/04/21 07:19:30;;;;;;;;;;;;;;;;;;5070233;28;19923;-54
2023/04/21 07:21:57;;;;;;;;;;;;;;;;;;5076737;28;19912;-53
2023/04/21 07:24:23;;;;;;;;;;;;;;;;;;5076809;28;19908;-54
2023/04/21 07:26:48;;;;;;;;;;;;;;;;;;5081310;28;20427;-51
2023/04/21 07:29:14;;;;;;;;;;;;;;;;;;5078141;28;19912;-52
2023/04/21 07:31:40;;;;;;;;;;;;;;;;;;5075053;28;20527;-52
2023/04/21 07:34:06;;;;;;;;;;;;;;;;;;5080313;28;20267;-53
2023/04/21 07:36:32;;;;;;;;;;;;;;;;;;5079621;28;19911;-53
2023/04/21 07:38:58;;;;;;;;;;;;;;;;;;5072747;28;19957;-51
2023/04/21 07:41:24;;;;;;;;;;;;;;;;;;5081267;28;19962;-53
2023/04/21 07:43:50;;;;;;;;;;;;;;;;;;5065773;28;19916;-51
2023/04/21 07:46:16;;;;;;;;;;;;;;;;;;5077950;28;20362;-54
2023/04/21 07:48:42;;;;;;;;;;;;;;;;;;5080301;28;19908;-52
2023/04/21 07:51:08;;;;;;;;;;;;;;;;;;5052593;28;19920;-53
2023/04/21 07:53:33;;;;;;;;;;;;;;;;;;5084263;28;19908;-54
2023/04/21 07:55:59;;;;;;;;;;;;;;;;;;5077872;28;19919;-52
2023/04/21 07:58:25;;;;;;;;;;;;;;;;;;5076117;28;19916;-53
2023/04/21 08:00:51;;;;;;;;;;;;;;;;;;5077281;28;19919;-53
2023/04/21 08:03:17;;;;;;;;;;;;;;;;;;5065775;28;20791;-53
2023/04/21 08:05:43;;;;;;;;;;;;;;;;;;5060808;28;20373;-53
2023/04/21 08:08:09;;;;;;;;;;;;;;;;;;5069146;28;19917;-53
2023/04/21 08:10:35;;;;;;;;;;;;;;;;;;5078790;28;19929;-53
2023/04/21 08:13:05;;;;;;;;;;;;;;;;;;5077550;28;19908;-53
2023/04/21 08:15:30;;;;;;;;;;;;;;;;;;5070625;28;19965;-53
2023/04/21 08:17:56;;;;;;;;;;;;;;;;;;5070694;28;19908;-52
2023/04/21 08:20:22;;;;;;;;;;;;;;;;;;5069744;28;20595;-52
2023/04/21 08:22:48;;;;;;;;;;;;;;;;;;5073699;28;20273;-53
2023/04/21 08:25:14;;;;;;;;;;;;;;;;;;5074208;28;19919;-51
2023/04/21 08:27:40;;;;;;;;;;;;;;;;;;5083206;28;20266;-52
2023/04/21 08:30:06;;;;;;;;;;;;;;;;;;5078034;28;20331;-52
2023/04/21 08:32:32;;;;;;;;;;;;;;;;;;5074560;28;19927;-53
2023/04/21 08:34:58;;;;;;;;;;;;;;;;;;5074465;28;20357;-52
2023/04/21 08:37:24;;;;;;;;;;;;;;;;;;5071596;28;19919;-52
2023/04/21 08:39:50;;;;;;;;;;;;;;;;;;5072512;28;19916;-53
2023/04/21 08:42:15;;;;;;;;;;;;;;;;;;5074872;28;19912;-53
2023/04/21 08:44:41;;;;;;;;;;;;;;;;;;5080671;28;19933;-53
2023/04/21 08:47:07;;;;;;;;;;;;;;;;;;5074519;28;19911;-53
2023/04/21 08:49:33;;;;;;;;;;;;;;;;;;5074397;28;20006;-52
2023/04/21 08:51:59;;;;;;;;;;;;;;;;;;5073767;28;19943;-51
2023/04/21 08:54:25;;;;;;;;;;;;;;;;;;5072864;28;19916;-53
2023/04/21 08:56:51;;;;;;;;;;;;;;;;;;5073694;28;19950;-53
2023/04/21 08:59:17;;;;;;;;;;;;;;;;;;5079898;28;19919;-51
2023/04/21 09:01:43;;;;;;;;;;;;;;;;;;5073909;28;20381;-53
2023/04/21 09:04:08;;;;;;;;;;;;;;;;;;5070500;28;19923;-52
2023/04/21 09:06:34;;;;;;;;;;;;;;;;;;5074104;28;19922;-53
2023/04/21 09:09:00;;;;;;;;;;;;;;;;;;5073223;28;19982;-53
2023/04/21 09:11:26;;;;;;;;;;;;;;;;;;5073872;28;19968;-53
2023/04/21 09:13:52;;;;;;;;;;;;;;;;;;5071190;28;19999;-53
2023/04/21 09:16:19;;;;;;;;;;;;;;;;;;5061290;28;19908;-53
2023/04/21 09:18:45;;;;;;;;;;;;;;;;;;5078197;28;19984;-53
2023/04/21 09:21:11;;;;;;;;;;;;;;;;;;5073731;28;19916;-51
2023/04/21 09:23:37;;;;;;;;;;;;;;;;;;5073165;28;19920;-53
2023/04/21 09:26:03;;;;;;;;;;;;;;;;;;5079268;28;20382;-51
2023/04/21 09:28:29;;;;;;;;;;;;;;;;;;5072743;28;19911;-51
2023/04/21 09:30:56;;;;;;;;;;;;;;;;;;5070595;28;20054;-53
2023/04/21 09:33:21;;;;;;;;;;;;;;;;;;5070677;28;19923;-53
2023/04/21 09:35:47;;;;;;;;;;;;;;;;;;5069631;28;20440;-52
2023/04/21 09:38:13;;;;;;;;;;;;;;;;;;5073419;28;19923;-53
2023/04/21 09:40:39;;;;;;;;;;;;;;;;;;5070003;28;19958;-54
2023/04/21 09:43:05;;;;;;;;;;;;;;;;;;5066993;28;19919;-56
2023/04/21 09:45:32;;;;;;;;;;;;;;;;;;5072042;28;20054;-54
2023/04/21 09:47:59;;;;;;;;;;;;;;;;;;5074938;28;19912;-54
2023/04/21 09:50:25;;;;;;;;;;;;;;;;;;5076132;28;19920;-57
2023/04/21 09:52:50;;;;;;;;;;;;;;;;;;5070054;28;19916;-55
2023/04/21 09:55:16;;;;;;;;;;;;;;;;;;5073774;28;19999;-55
2023/04/21 09:57:43;;;;;;;;;;;;;;;;;;5070255;28;20289;-55
2023/04/21 10:00:09;;;;;;;;;;;;;;;;;;5080514;28;19920;-56
2023/04/21 10:02:35;;;;;;;;;;;;;;;;;;5079315;28;19912;-55
2023/04/21 10:05:01;;;;;;;;;;;;;;;;;;5079395;28;19918;-55
2023/04/21 10:07:27;;;;;;;;;;;;;;;;;;5080732;28;19916;-56
2023/04/21 10:09:53;;;;;;;;;;;;;;;;;;5081314;28;20299;-55
2023/04/21 10:12:19;;;;;;;;;;;;;;;;;;5083508;28;20330;-54
2023/04/21 10:14:45;;;;;;;;;;;;;;;;;;5076897;28;20007;-54
2023/04/21 10:17:11;;;;;;;;;;;;;;;;;;5078696;28;20470;-56
2023/04/21 10:19:40;;;;;;;;;;;;;;;;;;5077638;28;20297;-55
2023/04/21 10:22:07;;;;;;;;;;;;;;;;;;5076613;28;19911;-53
2023/04/21 10:24:33;;;;;;;;;;;;;;;;;;5078572;28;20330;-53
2023/04/21 10:26:59;;;;;;;;;;;;;;;;;;5077932;28;19970;-53
2023/04/21 10:29:24;;;;;;;;;;;;;;;;;;5079405;28;20279;-54
2023/04/21 10:31:50;;;;;;;;;;;;;;;;;;5079753;28;19916;-53
2023/04/21 10:34:16;;;;;;;;;;;;;;;;;;5077873;28;19908;-54
2023/04/21 10:36:42;;;;;;;;;;;;;;;;;;5072352;28;19980;-54
2023/04/21 10:39:11;;;;;;;;;;;;;;;;;;5078625;28;19916;-53
2023/04/21 10:41:37;;;;;;;;;;;;;;;;;;5073075;28;19916;-54
2023/04/21 10:44:05;;;;;;;;;;;;;;;;;;5080407;28;19908;-53
2023/04/21 10:46:32;;;;;;;;;;;;;;;;;;5068295;28;19919;-53
2023/04/21 10:48:58;;;;;;;;;;;;;;;;;;5077665;28;20128;-52
2023/04/21 10:51:24;;;;;;;;;;;;;;;;;;5074182;28;20401;-53
2023/04/21 10:53:50;;;;;;;;;;;;;;;;;;5067404;28;19957;-52
2023/04/21 10:56:16;;;;;;;;;;;;;;;;;;5071577;28;19916;-55
2023/04/21 10:58:42;;;;;;;;;;;;;;;;;;5071912;28;19947;-53
2023/04/21 11:01:07;;;;;;;;;;;;;;;;;;5076362;28;20305;-53
2023/04/21 11:03:35;;;;;;;;;;;;;;;;;;5070695;28;19926;-54
2023/04/21 11:06:00;;;;;;;;;;;;;;;;;;5071377;28;19919;-54
2023/04/21 11:08:26;;;;;;;;;;;;;;;;;;5075837;28;19919;-54
2023/04/21 11:10:52;;;;;;;;;;;;;;;;;;5067914;28;20018;-54
2023/04/21 11:13:18;;;;;;;;;;;;;;;;;;5069041;28;19955;-55
2023/04/21 11:15:44;;;;;;;;;;;;;;;;;;5075137;28;19951;-54
2023/04/21 11:18:10;;;;;;;;;;;;;;;;;;5075091;28;19920;-53
2023/04/21 11:20:36;;;;;;;;;;;;;;;;;;5067519;28;20189;-53
2023/04/21 11:23:02;;;;;;;;;;;;;;;;;;5067391;28;19912;-52
2023/04/21 11:25:28;;;;;;;;;;;;;;;;;;5068040;28;20131;-52
2023/04/21 11:27:54;;;;;;;;;;;;;;;;;;5044228;28;20309;-52
2023/04/21 11:30:20;;;;;;;;;;;;;;;;;;5071072;28;20389;-52
2023/04/21 11:32:47;;;;;;;;;;;;;;;;;;5068213;28;19967;-53
2023/04/21 11:35:13;;;;;;;;;;;;;;;;;;5074615;28;19908;-53
2023/04/21 11:37:38;;;;;;;;;;;;;;;;;;5076778;28;19915;-52
2023/04/21 11:40:06;;;;;;;;;;;;;;;;;;5077274;28;19908;-53
2023/04/21 11:42:32;;;;;;;;;;;;;;;;;;5076119;28;20365;-51
2023/04/21 11:44:58;;;;;;;;;;;;;;;;;;5074363;28;20191;-53
2023/04/21 11:47:24;;;;;;;;;;;;;;;;;;5066475;28;20675;-52
2023/04/21 11:49:53;;;;;;;1.20;1.20;;;;;;;;;;5054711;28;25116;-54
2023/04/21 11:52:26;;;;;;;1.30;1.30;;;;;;;;;;5046235;28;20429;-52
2023/04/21 11:54:52;;;;;;;;;;;;;;;;;;5074595;28;20829;-52
2023/04/21 11:57:18;;;;;;;;;;;;;;;;;;5062861;28;20412;-52
2023/04/21 11:59:44;;;;;;;;;;;;;;;;;;5069196;28;20428;-53
2023/04/21 12:02:10;;;;;;;;;;;;;;;;;;5069035;28;20410;-58
2023/04/21 12:04:35;;;;;;;;;;;;;;;;;;5060717;28;20462;-54
2023/04/21 12:07:01;;;;;;;;;;;;;;;;;;5054317;28;20448;-53
2023/04/21 12:09:28;;;;;;;1.00;1.00;;;;;;;;;;5071261;28;20205;-52
2023/04/21 12:11:54;;;;;;;1.00;1.00;;;;;;;;;;5061381;28;20221;-52
2023/04/21 12:14:21;;;;;;;0.90;0.90;;;;;;;;;;5069490;28;20214;-51
2023/04/21 12:16:53;;;;;;;1.00;1.00;;;;;;;;;;5071759;28;20268;-52
2023/04/21 12:19:34;;;;;;;0.90;0.90;;;;;;;;;;5065928;28;20864;-56
2023/04/21 12:22:00;;;;;;;1.02;1.02;;;;;;;;;;5062721;28;20189;-52
2023/04/21 12:24:26;;;;;;;0.90;0.90;;;;;;;;;;5066368;28;20195;-53
2023/04/21 12:26:52;;;;;;;0.98;0.98;;;;;;;;;;5050312;28;20227;-53
2023/04/21 12:29:18;;;;;;;0.90;0.90;;;;;;;;;;5059904;28;20956;-51
2023/04/21 12:31:44;;;;;;;0.82;0.82;;;;;;;;;;5071520;28;20363;-53
2023/04/21 12:34:10;;;;;;;0.80;0.80;;;;;;;;;;5062109;28;20206;-51
2023/04/21 12:36:37;;;;;;;0.80;0.80;;;;;;;;;;5064002;28;20240;-53
2023/04/21 12:39:03;;;;;;;;;;;;;;;;;;5063396;28;20229;-50
2023/04/21 12:41:29;;;;;;;;;;;;;;;;;;5073939;28;20722;-53
2023/04/21 12:43:55;;;;;;;;;;;;;;;;;;5059268;28;20181;-53
2023/04/21 12:46:21;;;;;;;;;;;;;;;;;;5066814;28;20413;-53
2023/04/21 12:48:47;;;;;;;;;;;;;;;;;;5069985;28;20543;-52
2023/04/21 12:51:13;;;;;;;;;;;;;;;;;;5065703;28;20369;-52
2023/04/21 12:53:39;;;;;;;;;;;;;;;;;;5060427;28;20181;-52
2023/04/21 12:56:05;;;;;;;;;;;;;;;;;;5066953;28;20685;-52
2023/04/21 12:58:31;;;;;;;;;;;;;;;;;;5068476;28;20206;-53
2023/04/21 13:00:57;;;;;;;;;;;;;;;;;;5066731;28;20189;-52
2023/04/21 13:03:22;;;;;;;;;;;;;;;;;;5064240;28;20356;-52
2023/04/21 13:05:59;;;;;;;;;;;;;;;;;;5058346;28;20587;-52
2023/04/21 13:08:25;;;;;;;;;;;;;;;;;;5039852;28;20191;-52
2023/04/21 13:10:50;;;;;;;;;;;;;;;;;;5060949;28;20610;-52
2023/04/21 13:13:16;;;;;;;;;;;;;;;;;;5067848;28;20169;-52
2023/04/21 13:15:42;;;;;;;;;;;;;;;;;;5067671;28;20221;-53
2023/04/21 13:18:08;;;;;;;;;;;;;;;;;;5048842;28;20180;-52
2023/04/21 13:20:34;;;;;;;;;;;;;;;;;;5065439;28;20380;-52
2023/04/21 13:23:00;;;;;;;;;;;;;;;;;;5059314;28;20273;-53
2023/04/21 13:25:26;;;;;;;;;;;;;;;;;;5041465;28;20209;-53
2023/04/21 13:27:52;;;;;;;;;;;;;;;;;;5053875;28;20174;-53
2023/04/21 13:30:18;;;;;;;;;;;;;;;;;;5053857;28;20698;-53
2023/04/21 13:32:44;;;;;;;;;;;;;;;;;;5065926;28;20261;-53
2023/04/21 13:35:10;;;;;;;;;;;;;;;;;;5045620;28;20175;-52
2023/04/21 13:37:36;;;;;;;;;;;;;;;;;;5067231;28;20178;-55
2023/04/21 13:40:03;;;;;;;;;;;;;;;;;;5073999;28;20157;-53
2023/04/21 13:42:29;;;;;;;;;;;;;;;;;;5064936;28;20201;-55
2023/04/21 13:44:55;;;;;;;1.40;1.40;;;;;;;;;;5066763;28;20213;-52
2023/04/21 13:47:20;;;;;;;;;;;;;;;;;;5071422;28;20397;-52
2023/04/21 13:49:47;;;;;;;;;;;;;;;;;;5070393;28;20253;-52
2023/04/21 13:52:13;;;;;;;;;;;;;;;;;;5059047;28;20195;-52
2023/04/21 13:54:39;;;;;;;;;;;;;;;;;;5070451;28;21806;-52
2023/04/21 13:57:05;;;;;;;;;;;;;;;;;;5067635;28;25014;-52
2023/04/21 13:59:31;;;;;;;;;;;;;;;;;;5068441;28;20234;-52
2023/04/21 14:01:57;;;;;;;;;;;;;;;;;;5070281;28;20171;-52
2023/04/21 14:04:23;;;;;;;;;;;;;;;;;;5066738;28;20204;-52
2023/04/21 14:06:49;;;;;;;1.50;1.50;;;;;;;;;;5066204;28;20204;-53
2023/04/21 14:09:15;;;;;;;1.50;1.50;;;;;;;;;;5047004;28;20501;-53
2023/04/21 14:11:41;;;;;;;1.40;1.40;;;;;;;;;;5069540;28;20562;-52
2023/04/21 14:14:07;;;;;;;1.40;1.40;;;;;;;;;;5079217;28;20239;-52
2023/04/21 14:16:33;;;;;;;1.40;1.40;;;;;;;;;;5075839;28;20350;-52
2023/04/21 14:18:59;;;;;;;1.40;1.40;;;;;;;;;;5079035;28;21051;-53
2023/04/21 14:21:25;;;;;;;1.30;1.30;;;;;;;;;;5079600;28;20188;-52
2023/04/21 14:23:51;;;;;;;1.40;1.40;;;;;;;;;;5053494;28;20316;-51
2023/04/21 14:26:17;;;;;;;1.40;1.40;;;;;;;;;;5082542;28;20194;-53
2023/04/21 14:28:43;;;;;;;1.40;1.40;;;;;;;;;;5078175;28;20198;-52
2023/04/21 14:31:09;;;;;;;1.30;1.30;;;;;;;;;;5084690;28;20207;-51
2023/04/21 14:33:35;;;;;;;1.25;1.25;;;;;;;;;;5080203;28;20183;-52
2023/04/21 14:36:01;;;;;;;1.20;1.20;;;;;;;;;;5079868;28;20186;-52
2023/04/21 14:38:29;;;;;;;1.20;1.20;;;;;;;;;;5074185;28;20178;-52
2023/04/21 14:40:55;;;;;;;1.38;1.38;;;;;;;;;;5070894;28;20214;-52
2023/04/21 14:43:21;;;;;;;1.10;1.10;;;;;;;;;;5069465;28;20183;-52
2023/04/21 14:45:47;;;;;;;1.10;1.10;;;;;;;;;;5072636;28;20498;-53
2023/04/21 14:48:13;;;;;;;1.10;1.10;;;;;;;;;;5054588;28;20182;-52
2023/04/21 14:50:40;;;;;;;1.20;1.20;;;;;;;;;;5077791;28;20559;-51
2023/04/21 14:53:06;;;;;;;1.02;1.02;;;;;;;;;;5068815;28;20199;-52
2023/04/21 14:55:32;;;;;;;1.05;1.05;;;;;;;;;;5063124;28;20176;-51
2023/04/21 14:57:58;;;;;;;1.00;1.00;;;;;;;;;;5062517;28;20842;-53
2023/04/21 15:00:24;;;;;;;1.10;1.10;;;;;;;;;;5059868;28;20615;-52
2023/04/21 15:02:50;;;;;;;;;;;;;;;;;;5042969;28;20187;-52
2023/04/21 15:05:17;;;;;;;;;;;;;;;;;;5070115;28;20608;-52
2023/04/21 15:07:43;;;;;;;;;;;;;;;;;;5067714;28;20184;-53
2023/04/21 15:10:09;;;;;;;;;;;;;;;;;;5052170;28;20233;-52
2023/04/21 15:12:35;;;;;;;;;;;;;;;;;;5068706;28;20478;-52
2023/04/21 15:15:01;;;;;;;;;;;;;;;;;;5063101;28;20477;-52
2023/04/21 15:17:28;;;;;;;;;;;;;;;;;;5076229;28;20664;-52
2023/04/21 15:19:54;;;;;;;;;;;;;;;;;;5070359;28;20177;-52
2023/04/21 15:22:20;;;;;;;;;;;;;;;;;;5068544;28;20286;-53
2023/04/21 15:24:47;;;;;;;;;;;;;;;;;;5062342;28;20569;-52
2023/04/21 15:27:13;;;;;;;;;;;;;;;;;;5072445;28;20187;-52
2023/04/21 15:29:39;;;;;;;;;;;;;;;;;;5060046;28;20191;-51
2023/04/21 15:32:04;;;;;;;;;;;;;;;;;;5056078;28;20187;-52
2023/04/21 15:34:30;;;;;;;1.10;1.10;;;;;;;;;;5063540;28;20263;-52
2023/04/21 15:36:57;;;;;;;;;;;;;;;;;;5063690;28;20185;-52
2023/04/21 15:39:22;;;;;;;;;;;;;;;;;;5059668;28;20171;-53
2023/04/21 15:41:48;;;;;;;;;;;;;;;;;;5043813;28;20979;-51
2023/04/21 15:44:14;;;;;;;;;;;;;;;;;;5056754;28;20248;-52
2023/04/21 15:46:40;;;;;;;;;;;;;;;;;;5069920;28;20161;-52
2023/04/21 15:49:06;;;;;;;;;;;;;;;;;;5071146;28;20206;-51
2023/04/21 15:51:32;;;;;;;;;;;;;;;;;;5068137;28;20836;-52
2023/04/21 15:53:58;;;;;;;;;;;;;;;;;;5073139;28;21012;-50
2023/04/21 15:56:24;;;;;;;;;;;;;;;;;;5079618;28;20185;-53
2023/04/21 15:58:50;;;;;;;;;;;;;;;;;;5071202;28;20437;-52
2023/04/21 16:01:17;;;;;;;;;;;;;;;;;;5071281;28;20709;-52
2023/04/21 16:03:43;;;;;;;;;;;;;;;;;;5069213;28;21185;-52
2023/04/21 16:06:09;;;;;;;;;;;;;;;;;;5079615;28;20189;-52
2023/04/21 16:08:35;;;;;;;;;;;;;;;;;;5068573;28;20645;-51
2023/04/21 16:11:01;;;;;;;;;;;;;;;;;;5064845;28;20226;-53
2023/04/21 16:13:27;;;;;;;;;;;;;;;;;;5072585;28;20770;-52
2023/04/21 16:15:52;;;;;;;;;;;;;;;;;;5076783;28;20186;-52
2023/04/21 16:18:18;;;;;;;;;;;;;;;;;;5069801;28;25866;-51
2023/04/21 16:20:44;;;;;;;;;;;;;;;;;;5067107;28;20185;-51
2023/04/21 16:23:10;;;;;;;;;;;;;;;;;;5068171;28;20182;-53